Observations for CHRISTCHURCH IN, New Zealand (NZCH)

NZCH 252200Z AUTO 05004KT 9999 NCD 15/09 Q0994 NOSIG
NZCH 252130Z AUTO 11003KT 9999 NCD 15/10 Q0995 NOSIG
NZCH 252100Z AUTO 22002KT 9999 NCD 14/10 Q0995 NOSIG
NZCH 252030Z AUTO 13004KT 100V270 9999 NCD 14/09 Q0994 NOSIG
NZCH 252000Z AUTO 36005KT 330V030 9999 NCD 13/09 Q0994 NOSIG
NZCH 251930Z AUTO 36008KT 320V030 9999 FEW090/// 14/08 Q0994 NOSIG  
NZCH 251900Z AUTO 01010KT 9999 BKN095/// 13/08 Q0994 NOSIG  
NZCH 251830Z AUTO 06007KT 9999 SCT085/// 12/09 Q0994 NOSIG  
NZCH 251800Z AUTO 07009KT 9999 SCT090/// 13/09 Q0994 NOSIG  
NZCH 251730Z AUTO 08011KT 9999 NCD 14/08 Q0994 NOSIG
NZCH 251700Z AUTO 08010KT 9999 NCD 14/07 Q0995 NOSIG
NZCH 251630Z AUTO 08009KT 9999 NCD 13/07 Q0995 NOSIG
NZCH 251600Z AUTO 05007KT 020V080 9999 NCD 12/07 Q0995 NOSIG
NZCH 251530Z AUTO 06008KT 9999 NCD 11/07 Q0995 NOSIG
NZCH 251500Z AUTO 10006KT 9999 NCD 12/07 Q0996 NOSIG
NZCH 251430Z AUTO 11008KT 9999 NCD 13/07 Q0996 NOSIG
NZCH 251400Z AUTO 13007KT 9999 NCD 11/06 Q0996 NOSIG
NZCH 251330Z AUTO 07004KT 010V160 9999 NCD 11/04 Q0997 NOSIG
NZCH 251300Z AUTO 11002KT 9999 NCD 12/04 Q0997 NOSIG
NZCH 251230Z AUTO 13003KT 9999 NCD 11/04 Q0997 NOSIG
NZCH 251200Z AUTO 15003KT 9999 NCD 13/04 Q0997 NOSIG
NZCH 251130Z AUTO 16004KT 080V270 9999 NCD 13/04 Q0998 NOSIG
NZCH 251100Z AUTO 12004KT 070V150 9999 NCD 13/04 Q0998 NOSIG
NZCH 251030Z AUTO 10006KT 9999 NCD 13/04 Q0998 NOSIG
NZCH 251000Z AUTO 02003KT 9999 NCD 15/03 Q0998 NOSIG
NZCH 250930Z AUTO 23004KT 210V280 9999 NCD 16/02 Q0998 NOSIG
NZCH 250900Z AUTO 23007KT 9999 NCD 15/03 Q0997 NOSIG
NZCH 250830Z AUTO 22004KT 200V260 9999 NCD 15/04 Q0997 NOSIG
NZCH 250800Z AUTO 26001KT 9999 NCD 16/02 Q0998 NOSIG
NZCH 250730Z AUTO 24004KT 210V300 9999 NCD 16/03 Q0997 NOSIG
NZCH 250700Z AUTO 30004KT 250V350 9999 NCD 18/03 Q0997 NOSIG
NZCH 250630Z AUTO 29012KT 260V320 9999 NCD 19/03 Q0997 BECMG 06008KT
NZCH 250600Z AUTO 29016G26KT 250V330 9999 NCD 20/04 Q0997 NOSIG 
NZCH 250530Z AUTO 29013KT 260V320 9999 NCD 20/05 Q0997 NOSIG
NZCH 250500Z AUTO 28017G27KT 220V320 9999 NCD 20/06 Q0997 NOSIG 
NZCH 250430Z AUTO 29018KT 250V320 9999 NCD 20/06 Q0996 NOSIG
NZCH 250400Z AUTO 28015G26KT 240V330 9999 NCD 20/07 Q0996 NOSIG 
NZCH 250330Z AUTO 29015KT 250V320 9999 NCD 21/08 Q0996 NOSIG
NZCH 250300Z AUTO 30020G33KT 9999 NCD 22/07 Q0996 NOSIG 
NZCH 250230Z AUTO 29023KT 9999 NCD 22/08 Q0995 NOSIG
NZCH 250200Z AUTO 29024G34KT 260V330 9999 NCD 22/08 Q0995 NOSIG 
NZCH 250130Z AUTO 29016G32KT 250V340 9999 NCD 23/09 Q0996 NOSIG 
NZCH 250100Z AUTO 30017KT 260V340 9999 NCD 23/10 Q0996 NOSIG
NZCH 250030Z AUTO 29016G26KT 220V320 9999 NCD 22/10 Q0996 NOSIG 
NZCH 250000Z AUTO 30015G26KT 250V340 9999 NCD 23/10 Q0995 NOSIG 
NZCH 242330Z AUTO 29005KT 230V330 9999 NCD 22/11 Q0995 NOSIG
NZCH 242300Z AUTO 33010KT 280V360 9999 NCD 22/11 Q0995 NOSIG
NZCH 242230Z AUTO 34012KT 310V020 9999 NCD 22/11 Q0994 NOSIG
NZCH 242200Z AUTO 32014KT 9000 NCD 21/10 Q0995 NOSIG
NZCH 242130Z AUTO 31010KT 260V010 9999 NCD 20/09 Q0995 NOSIG